Terminal Aerodrome Forecast
Issued by NWS Charleston, WV

Current Version | Previous Version | Graphics & Text | Print | Product List | Glossary On
Versions: 1 2 3 4 5 6 7 8 9 10 11 12 13 14 15 16 17 18 19 20 21 22 23
403
FTUS41 KRLX 240539
TAFEKN
TAF
KEKN 240539Z 2406/2506 16014G24KT P6SM BKN035 OVC070
     FM240900 16013KT P6SM -SHRA OVC070
     FM241200 17012G20KT P6SM -SHRA OVC060
     FM242000 12010KT P6SM -SHRA OVC060
     FM250100 17006KT P6SM OVC060=

USA.gov is the U.S. government's official web portal to all federal, state and local government web resources and services.